createdAt,value
2022-09-28T00:00:18.574Z,13.82
2022-09-28T00:02:48.204Z,13.81
2022-09-28T00:05:17.195Z,13.80
2022-09-28T00:07:47.093Z,13.80
2022-09-28T00:10:17.725Z,13.79
2022-09-28T00:12:48.527Z,13.80
2022-09-28T00:15:18.932Z,13.80
2022-09-28T00:17:49.011Z,13.79
2022-09-28T00:20:19.505Z,13.77
2022-09-28T00:22:49.790Z,13.78
2022-09-28T00:25:21.124Z,13.79
2022-09-28T00:27:51.364Z,13.81
2022-09-28T00:30:23.701Z,13.81
2022-09-28T00:32:52.591Z,13.79
2022-09-28T00:35:22.368Z,13.78
2022-09-28T00:37:51.918Z,13.77
2022-09-28T00:40:21.204Z,13.79
2022-09-28T00:42:50.973Z,13.79
2022-09-28T00:45:23.619Z,13.81
2022-09-28T00:47:57.272Z,13.80
2022-09-28T00:50:32.669Z,13.81
2022-09-28T00:53:15.808Z,13.82
2022-09-28T00:55:56.797Z,13.81
2022-09-28T00:58:29.679Z,13.82
2022-09-28T01:01:00.402Z,13.82
2022-09-28T01:03:30.413Z,13.82
2022-09-28T01:06:02.055Z,13.83
2022-09-28T01:08:32.719Z,13.81
2022-09-28T01:11:04.004Z,13.79
2022-09-28T01:13:33.554Z,13.77
2022-09-28T01:16:50.261Z,13.78
2022-09-28T01:20:15.169Z,13.76
2022-09-28T01:23:13.013Z,13.76
2022-09-28T01:25:58.020Z,13.73
2022-09-28T01:28:30.073Z,13.70
2022-09-28T01:31:17.461Z,13.70
2022-09-28T01:34:06.529Z,13.69
2022-09-28T01:36:41.533Z,13.66
2022-09-28T01:39:18.410Z,13.62
2022-09-28T01:41:48.872Z,13.60
2022-09-28T01:44:18.524Z,13.62
2022-09-28T01:46:49.251Z,13.63
2022-09-28T01:49:23.114Z,13.64
2022-09-28T01:52:12.700Z,13.62
2022-09-28T01:54:47.585Z,13.60
2022-09-28T01:57:32.276Z,13.62
2022-09-28T02:00:11.736Z,13.66
2022-09-28T02:03:02.203Z,13.68
2022-09-28T02:05:39.265Z,13.70
2022-09-28T02:08:39.727Z,13.69
2022-09-28T02:11:18.452Z,13.70
2022-09-28T02:14:05.570Z,13.70
2022-09-28T02:16:44.744Z,13.69
2022-09-28T02:19:22.141Z,13.67
2022-09-28T02:22:25.206Z,13.64
2022-09-28T02:25:05.358Z,13.67
2022-09-28T02:27:49.171Z,13.69
2022-09-28T02:30:19.280Z,13.70
2022-09-28T02:32:50.894Z,13.68
2022-09-28T02:35:24.902Z,13.66
2022-09-28T02:37:55.042Z,13.67
2022-09-28T02:40:28.760Z,13.67
2022-09-28T02:43:18.809Z,13.69
2022-09-28T02:46:22.771Z,13.70
2022-09-28T02:49:20.853Z,13.69
2022-09-28T02:51:48.066Z,13.67
2022-09-28T02:54:41.091Z,13.64
2022-09-28T02:58:07.528Z,13.66
2022-09-28T03:00:43.810Z,13.62
2022-09-28T03:03:23.694Z,13.58
2022-09-28T03:06:07.184Z,13.57
2022-09-28T03:08:47.248Z,13.56
2022-09-28T03:11:30.228Z,13.57
2022-09-28T03:14:00.656Z,13.57
2022-09-28T03:16:32.605Z,13.57
2022-09-28T03:19:02.779Z,13.58
2022-09-28T03:21:32.308Z,13.61
2022-09-28T03:24:04.276Z,13.57
2022-09-28T03:26:33.749Z,13.56
2022-09-28T03:29:04.137Z,13.56
2022-09-28T03:31:34.947Z,13.58
2022-09-28T03:34:06.640Z,13.61
2022-09-28T03:36:36.819Z,13.62
2022-09-28T03:39:06.395Z,13.61
2022-09-28T03:41:36.674Z,13.59
2022-09-28T03:44:05.592Z,13.59
2022-09-28T03:46:35.729Z,13.60
2022-09-28T03:49:06.822Z,13.57
2022-09-28T03:51:36.496Z,13.55
2022-09-28T03:54:07.163Z,13.55
2022-09-28T03:56:38.063Z,13.53
2022-09-28T03:59:07.998Z,13.53
2022-09-28T04:01:39.292Z,13.54
2022-09-28T04:04:12.653Z,13.57
2022-09-28T04:06:43.028Z,13.58
2022-09-28T04:09:12.326Z,13.60
2022-09-28T04:11:59.755Z,13.60
2022-09-28T04:14:14.488Z,13.60
2022-09-28T04:16:44.550Z,13.60
2022-09-28T04:19:16.712Z,13.59
2022-09-28T04:21:51.931Z,13.61
2022-09-28T04:24:21.606Z,13.62
2022-09-28T04:26:50.974Z,13.65
2022-09-28T04:29:22.941Z,13.67
2022-09-28T04:31:55.344Z,13.67
2022-09-28T04:34:31.885Z,13.66
2022-09-28T04:36:59.822Z,13.68
2022-09-28T04:39:30.212Z,13.69
2022-09-28T04:42:00.030Z,13.69
2022-09-28T04:44:30.310Z,13.68
2022-09-28T04:47:05.347Z,13.70
2022-09-28T04:49:36.194Z,13.72
2022-09-28T04:52:07.961Z,13.73
2022-09-28T04:54:38.386Z,13.76
2022-09-28T04:57:09.830Z,13.74
2022-09-28T04:59:40.902Z,13.75
2022-09-28T05:02:13.886Z,13.76
2022-09-28T05:05:01.666Z,13.78
2022-09-28T05:07:42.333Z,13.78
2022-09-28T05:10:13.747Z,13.80
2022-09-28T05:12:44.212Z,13.84
2022-09-28T05:15:15.762Z,13.88
2022-09-28T05:17:45.620Z,13.89
2022-09-28T05:20:29.258Z,13.91
2022-09-28T05:22:59.284Z,13.93
2022-09-28T05:25:29.428Z,13.98
2022-09-28T05:28:01.501Z,14.01
2022-09-28T05:30:49.820Z,14.05
2022-09-28T05:33:44.873Z,14.08
2022-09-28T05:36:16.127Z,14.10
2022-09-28T05:38:47.902Z,14.12
2022-09-28T05:41:18.136Z,14.15
2022-09-28T05:43:48.647Z,14.16
2022-09-28T05:46:18.361Z,14.16
2022-09-28T05:48:47.694Z,14.18
2022-09-28T05:51:17.117Z,14.19
2022-09-28T05:53:46.566Z,14.20
2022-09-28T05:56:18.342Z,14.18
2022-09-28T05:58:47.902Z,14.18
2022-09-28T06:01:20.323Z,14.20
2022-09-28T06:03:51.525Z,14.20
2022-09-28T06:06:22.927Z,14.23
2022-09-28T06:08:53.124Z,14.25
2022-09-28T06:11:26.030Z,14.26
2022-09-28T06:13:57.774Z,14.28
2022-09-28T06:16:29.897Z,14.28
2022-09-28T06:18:59.486Z,14.31
2022-09-28T06:21:39.574Z,14.34
2022-09-28T06:24:10.240Z,14.34
2022-09-28T06:26:41.117Z,14.35
2022-09-28T06:29:10.070Z,14.35
2022-09-28T06:31:41.928Z,14.37
2022-09-28T06:34:12.355Z,14.36
2022-09-28T06:36:42.248Z,14.35
2022-09-28T06:39:12.715Z,14.36
2022-09-28T06:41:46.303Z,14.39
2022-09-28T06:44:18.997Z,14.39
2022-09-28T06:46:56.182Z,14.41
2022-09-28T06:49:27.464Z,14.38
2022-09-28T06:52:18.863Z,14.35
2022-09-28T06:55:10.496Z,14.36
2022-09-28T06:57:47.270Z,14.37
2022-09-28T07:00:18.723Z,14.38
2022-09-28T07:02:50.302Z,14.36
2022-09-28T07:05:23.505Z,14.36
2022-09-28T07:08:10.947Z,14.34
2022-09-28T07:10:44.965Z,14.34
2022-09-28T07:13:48.989Z,14.35
2022-09-28T07:16:03.135Z,14.32
2022-09-28T07:18:34.392Z,14.32
2022-09-28T07:21:06.198Z,14.33
2022-09-28T07:23:46.131Z,14.28
2022-09-28T07:26:25.574Z,14.27
2022-09-28T07:29:04.691Z,14.27
2022-09-28T07:31:44.201Z,14.26
2022-09-28T07:34:23.314Z,14.31
2022-09-28T07:37:02.664Z,14.38
2022-09-28T07:39:34.521Z,14.44
2022-09-28T07:42:05.433Z,14.49
2022-09-28T07:44:36.443Z,14.57
2022-09-28T07:47:06.156Z,14.66
2022-09-28T07:49:44.015Z,14.76
2022-09-28T07:52:23.325Z,14.84
2022-09-28T07:54:55.576Z,14.89
2022-09-28T07:57:26.884Z,14.93
2022-09-28T07:59:58.937Z,14.98
2022-09-28T08:02:32.139Z,15.03
2022-09-28T08:05:01.588Z,15.08
2022-09-28T08:07:32.139Z,15.11
2022-09-28T08:10:05.826Z,15.11
2022-09-28T08:12:41.249Z,15.09
2022-09-28T08:15:15.530Z,15.13
2022-09-28T08:17:58.015Z,15.14
2022-09-28T08:20:50.751Z,15.19
2022-09-28T08:23:18.167Z,15.23
2022-09-28T08:25:49.232Z,15.25
2022-09-28T08:28:18.704Z,15.30
2022-09-28T08:30:50.449Z,15.35
2022-09-28T08:33:28.750Z,15.39
2022-09-28T08:36:15.971Z,15.45
2022-09-28T08:38:46.742Z,15.59
2022-09-28T08:41:52.962Z,15.71
2022-09-28T08:44:47.676Z,15.79
2022-09-28T08:47:46.836Z,15.96
2022-09-28T08:50:26.753Z,16.07
2022-09-28T08:53:23.734Z,16.18
2022-09-28T08:56:03.427Z,16.34
2022-09-28T08:58:39.725Z,16.43
2022-09-28T09:01:11.604Z,16.51
2022-09-28T09:03:42.213Z,16.57
2022-09-28T09:06:50.242Z,16.64
2022-09-28T09:09:53.956Z,16.69
2022-09-28T09:12:39.417Z,16.74
2022-09-28T09:15:41.314Z,16.78
2022-09-28T09:18:43.987Z,16.74
2022-09-28T09:21:42.890Z,16.65
2022-09-28T09:24:27.265Z,16.62
2022-09-28T09:27:25.885Z,16.58
2022-09-28T09:30:14.498Z,16.56
2022-09-28T09:33:18.916Z,16.55
2022-09-28T09:36:38.390Z,16.53
2022-09-28T09:40:01.711Z,16.53
2022-09-28T09:43:14.735Z,16.53
2022-09-28T09:46:14.740Z,16.55
2022-09-28T09:49:20.260Z,16.60
2022-09-28T09:52:06.560Z,16.66
2022-09-28T09:55:01.759Z,16.65
2022-09-28T09:57:46.468Z,16.68
2022-09-28T10:00:21.643Z,16.74
2022-09-28T10:02:53.990Z,16.78
2022-09-28T10:05:27.466Z,16.77
2022-09-28T10:08:06.559Z,16.74
2022-09-28T10:10:39.414Z,16.76
2022-09-28T10:13:11.522Z,16.76
2022-09-28T10:15:40.999Z,16.79
2022-09-28T10:18:19.979Z,16.79
2022-09-28T10:21:16.679Z,16.81
2022-09-28T10:24:04.857Z,16.80
2022-09-28T10:26:37.616Z,16.83
2022-09-28T10:29:14.510Z,16.84
2022-09-28T10:31:52.385Z,16.84
2022-09-28T10:34:30.284Z,16.82
2022-09-28T10:37:08.833Z,16.79
2022-09-28T10:39:53.651Z,16.78
2022-09-28T10:42:26.580Z,16.79
2022-09-28T10:45:06.737Z,16.83
2022-09-28T10:47:40.398Z,16.87
2022-09-28T10:50:22.945Z,16.86
2022-09-28T10:52:54.042Z,16.87
2022-09-28T10:55:32.758Z,16.87
2022-09-28T10:58:23.831Z,16.90
2022-09-28T11:00:55.747Z,16.95
2022-09-28T11:03:27.450Z,16.96
2022-09-28T11:06:02.443Z,16.99
2022-09-28T11:08:39.962Z,17.04
2022-09-28T11:11:15.328Z,17.06
2022-09-28T11:13:55.059Z,17.07
2022-09-28T11:16:31.606Z,17.06
2022-09-28T11:19:22.955Z,17.08
2022-09-28T11:21:53.639Z,17.10
2022-09-28T11:24:26.973Z,17.11
2022-09-28T11:26:59.860Z,17.15
2022-09-28T11:29:43.708Z,17.16
2022-09-28T11:32:44.580Z,17.17
2022-09-28T11:35:32.690Z,17.18
2022-09-28T11:38:13.333Z,17.21
2022-09-28T11:41:10.282Z,17.25
2022-09-28T11:44:18.952Z,17.26
2022-09-28T11:47:33.133Z,17.25
2022-09-28T11:50:31.385Z,17.21
2022-09-28T11:53:33.541Z,17.22
2022-09-28T11:56:31.049Z,17.23
2022-09-28T11:59:07.273Z,17.21
2022-09-28T12:01:51.274Z,17.20
2022-09-28T12:04:40.538Z,17.18
2022-09-28T12:07:36.668Z,17.18
2022-09-28T12:10:24.104Z,17.18
2022-09-28T12:13:09.919Z,17.17
2022-09-28T12:16:17.148Z,17.16
2022-09-28T12:18:49.179Z,17.14
2022-09-28T12:21:38.369Z,17.12
2022-09-28T12:24:26.907Z,17.11
2022-09-28T12:27:03.939Z,17.11
2022-09-28T12:30:04.675Z,17.11
2022-09-28T12:32:45.283Z,17.11
2022-09-28T12:35:17.990Z,17.05
2022-09-28T12:38:33.547Z,17.01
2022-09-28T12:41:27.620Z,16.99
2022-09-28T12:44:17.203Z,16.94
2022-09-28T12:47:40.597Z,16.88
2022-09-28T12:50:39.544Z,16.82
2022-09-28T12:53:52.752Z,16.76
2022-09-28T12:56:39.114Z,16.75
2022-09-28T12:59:19.105Z,16.76
2022-09-28T13:02:14.490Z,16.73
2022-09-28T13:05:18.791Z,16.72
2022-09-28T13:08:26.963Z,16.68
2022-09-28T13:11:08.148Z,16.65
2022-09-28T13:14:04.990Z,16.60
2022-09-28T13:16:43.188Z,16.56
2022-09-28T13:19:32.569Z,16.54
2022-09-28T13:22:45.103Z,16.51
2022-09-28T13:25:19.494Z,16.51
2022-09-28T13:28:00.603Z,16.49
2022-09-28T13:30:31.184Z,16.48
2022-09-28T13:33:03.051Z,16.45
2022-09-28T13:35:33.037Z,16.45
2022-09-28T13:38:22.903Z,16.45
2022-09-28T13:41:10.733Z,16.45
2022-09-28T13:43:48.695Z,16.43
2022-09-28T13:47:09.602Z,16.40
2022-09-28T13:50:00.149Z,16.37
2022-09-28T13:53:06.680Z,16.40
2022-09-28T13:56:14.714Z,16.44
2022-09-28T13:59:05.799Z,16.47
2022-09-28T14:01:44.245Z,16.53
2022-09-28T14:04:25.888Z,16.53
2022-09-28T14:06:57.326Z,16.55
2022-09-28T14:09:48.191Z,16.56
2022-09-28T14:12:32.635Z,16.56
2022-09-28T14:15:02.240Z,16.59
2022-09-28T14:17:47.655Z,16.59
2022-09-28T14:20:17.734Z,16.58
2022-09-28T14:23:09.164Z,16.54
2022-09-28T14:26:13.695Z,16.51
2022-09-28T14:28:49.046Z,16.46
2022-09-28T14:31:25.690Z,16.46
2022-09-28T14:33:57.396Z,16.45
2022-09-28T14:36:49.645Z,16.45
2022-09-28T14:39:40.895Z,16.44
2022-09-28T14:42:15.682Z,16.40
2022-09-28T14:45:08.001Z,16.39
2022-09-28T14:47:49.151Z,16.38
2022-09-28T14:50:29.087Z,16.38
2022-09-28T14:53:20.086Z,16.35
2022-09-28T14:55:58.768Z,16.32
2022-09-28T14:58:29.476Z,16.28
2022-09-28T15:01:02.929Z,16.24
2022-09-28T15:03:34.052Z,16.22
2022-09-28T15:06:03.696Z,16.21
2022-09-28T15:08:38.870Z,16.18
2022-09-28T15:11:13.110Z,16.19
2022-09-28T15:13:43.360Z,16.18
2022-09-28T15:16:14.339Z,16.15
2022-09-28T15:18:58.842Z,16.12
2022-09-28T15:21:41.650Z,16.10
2022-09-28T15:24:34.524Z,16.08
2022-09-28T15:27:18.089Z,16.08
2022-09-28T15:30:04.680Z,16.03
2022-09-28T15:32:34.317Z,16.00
2022-09-28T15:35:23.832Z,16.01
2022-09-28T15:37:54.019Z,16.01
2022-09-28T15:40:33.724Z,15.99
2022-09-28T15:43:09.065Z,15.98
2022-09-28T15:45:40.314Z,15.95
2022-09-28T15:48:33.304Z,15.97
2022-09-28T15:51:09.541Z,15.97
2022-09-28T15:54:05.221Z,15.96
2022-09-28T15:56:37.167Z,15.96
2022-09-28T15:59:23.278Z,15.96
2022-09-28T16:02:10.542Z,15.94
2022-09-28T16:04:55.445Z,15.93
2022-09-28T16:07:34.387Z,15.91
2022-09-28T16:10:15.344Z,15.89
2022-09-28T16:12:48.864Z,15.85
2022-09-28T16:15:25.737Z,15.84
2022-09-28T16:18:02.289Z,15.83
2022-09-28T16:20:39.233Z,15.79
2022-09-28T16:23:27.486Z,15.79
2022-09-28T16:26:11.504Z,15.78
2022-09-28T16:28:48.161Z,15.78
2022-09-28T16:31:27.744Z,15.79
2022-09-28T16:34:02.011Z,15.78
2022-09-28T16:36:43.361Z,15.79
2022-09-28T16:39:14.242Z,15.80
2022-09-28T16:41:56.171Z,15.79
2022-09-28T16:44:27.016Z,15.79
2022-09-28T16:47:00.417Z,15.79
2022-09-28T16:49:31.313Z,15.78
2022-09-28T16:52:02.144Z,15.80
2022-09-28T16:54:49.767Z,15.79
2022-09-28T16:57:19.115Z,15.80
2022-09-28T16:59:48.512Z,15.79
2022-09-28T17:02:45.303Z,15.77
2022-09-28T17:04:53.636Z,15.75
2022-09-28T17:07:23.987Z,15.74
2022-09-28T17:09:52.836Z,15.73
2022-09-28T17:12:27.080Z,15.74
2022-09-28T17:14:56.375Z,15.73
2022-09-28T17:17:29.439Z,15.73
2022-09-28T17:19:59.105Z,15.73
2022-09-28T17:22:28.392Z,15.73
2022-09-28T17:24:58.651Z,15.71
2022-09-28T17:27:28.307Z,15.67
2022-09-28T17:29:57.852Z,15.62
2022-09-28T17:32:26.962Z,15.54
2022-09-28T17:35:19.964Z,15.49
2022-09-28T17:37:26.635Z,15.46
2022-09-28T17:39:57.183Z,15.38
2022-09-28T17:42:26.787Z,15.23
2022-09-28T17:44:56.239Z,15.09
2022-09-28T17:47:25.425Z,14.96
2022-09-28T17:49:54.966Z,14.83
2022-09-28T17:52:24.040Z,14.72
2022-09-28T17:54:52.951Z,14.63
2022-09-28T17:57:22.135Z,14.60
2022-09-28T17:59:51.829Z,14.56
2022-09-28T18:02:23.619Z,14.55
2022-09-28T18:04:54.172Z,14.51
2022-09-28T18:07:24.521Z,14.49
2022-09-28T18:09:56.226Z,14.46
2022-09-28T18:12:25.563Z,14.43
2022-09-28T18:14:55.369Z,14.41
2022-09-28T18:17:24.800Z,14.38
2022-09-28T18:19:54.301Z,14.34
2022-09-28T18:22:24.754Z,14.29
2022-09-28T18:24:54.172Z,14.25
2022-09-28T18:27:24.107Z,14.23
2022-09-28T18:29:54.624Z,14.22
2022-09-28T18:32:23.873Z,14.20
2022-09-28T18:34:53.710Z,14.20
2022-09-28T18:37:23.562Z,14.20
2022-09-28T18:39:52.367Z,14.17
2022-09-28T18:42:21.638Z,14.17
2022-09-28T18:44:50.696Z,14.10
2022-09-28T18:47:20.699Z,14.06
2022-09-28T18:49:50.899Z,14.02
2022-09-28T18:52:19.837Z,13.98
2022-09-28T18:54:50.237Z,13.94
2022-09-28T18:57:19.085Z,13.91
2022-09-28T18:59:48.102Z,13.87
2022-09-28T19:02:17.798Z,13.80
2022-09-28T19:04:47.089Z,13.74
2022-09-28T19:07:16.744Z,13.68
2022-09-28T19:09:46.420Z,13.62
2022-09-28T19:12:16.478Z,13.57
2022-09-28T19:14:46.764Z,13.52
2022-09-28T19:17:17.949Z,13.51
2022-09-28T19:19:47.277Z,13.48
2022-09-28T19:22:17.622Z,13.44
2022-09-28T19:24:47.180Z,13.37
2022-09-28T19:27:18.513Z,13.33
2022-09-28T19:29:47.739Z,13.29
2022-09-28T19:32:17.813Z,13.27
2022-09-28T19:34:48.511Z,13.20
2022-09-28T19:37:18.217Z,13.14
2022-09-28T19:39:48.309Z,13.10
2022-09-28T19:42:17.114Z,13.09
2022-09-28T19:44:47.485Z,13.05
2022-09-28T19:47:19.305Z,13.01
2022-09-28T19:49:49.452Z,13.00
2022-09-28T19:52:18.995Z,12.97
2022-09-28T19:54:53.795Z,12.96
2022-09-28T19:57:25.752Z,12.90
2022-09-28T19:59:59.228Z,12.85
2022-09-28T20:02:25.918Z,12.78
2022-09-28T20:04:55.195Z,12.73
2022-09-28T20:07:23.921Z,12.70
2022-09-28T20:09:54.117Z,12.66
2022-09-28T20:12:23.908Z,12.63
2022-09-28T20:14:54.087Z,12.61
2022-09-28T20:17:23.067Z,12.58
2022-09-28T20:19:52.177Z,12.57
2022-09-28T20:22:21.017Z,12.56
2022-09-28T20:24:51.283Z,12.57
2022-09-28T20:27:26.089Z,12.56
2022-09-28T20:29:51.937Z,12.53
2022-09-28T20:32:21.625Z,12.49
2022-09-28T20:34:51.801Z,12.49
2022-09-28T20:37:23.871Z,12.45
2022-09-28T20:39:55.196Z,12.41
2022-09-28T20:42:25.150Z,12.38
2022-09-28T20:44:54.826Z,12.37
2022-09-28T20:47:24.677Z,12.36
2022-09-28T20:49:55.786Z,12.34
2022-09-28T20:52:25.603Z,12.33
2022-09-28T20:54:55.545Z,12.28
2022-09-28T20:57:25.863Z,12.20
2022-09-28T20:59:55.061Z,12.14
2022-09-28T21:02:24.864Z,12.06
2022-09-28T21:04:54.402Z,11.99
2022-09-28T21:07:24.221Z,11.90
2022-09-28T21:09:53.397Z,11.83
2022-09-28T21:12:22.426Z,11.78
2022-09-28T21:14:53.615Z,11.74
2022-09-28T21:17:24.075Z,11.70
2022-09-28T21:19:54.311Z,11.68
2022-09-28T21:22:23.969Z,11.66
2022-09-28T21:24:52.755Z,11.61
2022-09-28T21:27:21.651Z,11.56
2022-09-28T21:29:51.500Z,11.54
2022-09-28T21:32:20.660Z,11.51
2022-09-28T21:34:50.240Z,11.45
2022-09-28T21:37:20.210Z,11.40
2022-09-28T21:39:49.566Z,11.35
2022-09-28T21:42:19.445Z,11.31
2022-09-28T21:44:48.358Z,11.31
2022-09-28T21:47:18.175Z,11.28
2022-09-28T21:49:46.893Z,11.25
2022-09-28T21:52:17.667Z,11.17
2022-09-28T21:54:46.519Z,11.07
2022-09-28T21:57:17.552Z,11.00
2022-09-28T21:59:48.991Z,10.97
2022-09-28T22:02:21.512Z,10.94
2022-09-28T22:04:51.424Z,10.91
2022-09-28T22:07:21.835Z,10.88
2022-09-28T22:09:53.697Z,10.88
2022-09-28T22:12:23.878Z,10.88
2022-09-28T22:14:54.499Z,10.87
2022-09-28T22:17:24.347Z,10.81
2022-09-28T22:19:53.611Z,10.81
2022-09-28T22:22:26.158Z,10.81
2022-09-28T22:24:54.706Z,10.78
2022-09-28T22:27:24.400Z,10.77
2022-09-28T22:29:54.153Z,10.75
2022-09-28T22:32:27.227Z,10.75
2022-09-28T22:34:58.163Z,10.72
2022-09-28T22:37:27.799Z,10.70
2022-09-28T22:39:57.399Z,10.68
2022-09-28T22:42:27.094Z,10.68
2022-09-28T22:44:56.271Z,10.68
2022-09-28T22:47:26.407Z,10.68
2022-09-28T22:49:56.553Z,10.65
2022-09-28T22:52:26.744Z,10.63
2022-09-28T22:54:55.874Z,10.59
2022-09-28T22:57:25.819Z,10.55
2022-09-28T22:59:55.440Z,10.53
2022-09-28T23:02:25.142Z,10.52
2022-09-28T23:04:54.172Z,10.52
2022-09-28T23:07:23.263Z,10.48
2022-09-28T23:09:53.737Z,10.43
2022-09-28T23:12:23.382Z,10.35
2022-09-28T23:14:53.006Z,10.31
2022-09-28T23:17:22.696Z,10.28
2022-09-28T23:19:53.164Z,10.27
2022-09-28T23:22:22.553Z,10.23
2022-09-28T23:24:52.192Z,10.20
2022-09-28T23:27:22.473Z,10.21
2022-09-28T23:29:53.659Z,10.22
2022-09-28T23:32:23.377Z,10.23
2022-09-28T23:34:53.630Z,10.22
2022-09-28T23:37:23.036Z,10.22
2022-09-28T23:39:53.547Z,10.16
2022-09-28T23:42:23.590Z,10.05
2022-09-28T23:44:54.401Z,10.01
2022-09-28T23:47:23.590Z,9.99
2022-09-28T23:49:53.146Z,9.96
2022-09-28T23:52:22.967Z,9.94
2022-09-28T23:54:52.762Z,9.92
2022-09-28T23:57:22.409Z,9.91
2022-09-28T23:59:52.257Z,9.95
